Time;durP1;ratioP1;P1;durP2;ratioP2;P2;SDS_P1;SDS_P2;PMS_P1;PMS_P2;Temp;Humidity;BMP_temperature;BMP_pressure;BME280_temperature;BME280_humidity;BME280_pressure;Samples;Min_cycle;Max_cycle;Signal;HPM_P1;HPM_P2
2023/02/19 00:01:14;;;;;;;0.13;0.13;;;;;;;11.49;76.45;101864.41;5053973;28;20025;-84
2023/02/19 00:03:41;;;;;;;1.30;0.52;;;;;;;11.45;77.01;101869.75;5052083;28;20027;-84
2023/02/19 00:06:09;;;;;;;0.10;0.10;;;;;;;11.42;77.18;101867.13;5059019;28;20056;-84
2023/02/19 00:08:37;;;;;;;1.67;1.23;;;;;;;11.44;77.26;101870.63;5058979;28;20040;-85
2023/02/19 00:11:07;;;;;;;2.72;2.15;;;;;;;11.46;76.90;101874.16;5057629;28;20086;-86
2023/02/19 00:13:38;;;;;;;0.10;0.10;;;;;;;11.42;77.09;101878.63;5058571;28;20017;-84
2023/02/19 00:18:43;;;;;;;0.10;0.10;;;;;;;11.38;76.29;101886.63;5113359;27;20402;-85
2023/02/19 00:21:10;;;;;;;0.10;0.10;;;;;;;11.43;76.49;101877.72;5111443;27;20024;-84
2023/02/19 00:23:36;;;;;;;0.95;0.95;;;;;;;11.44;76.21;101875.94;5111899;28;20042;-84
2023/02/19 00:26:04;;;;;;;0.10;0.10;;;;;;;11.41;76.11;101886.59;5101430;28;20028;-83
2023/02/19 00:28:31;;;;;;;0.10;0.10;;;;;;;11.44;75.69;101882.16;5105126;28;20039;-85
2023/02/19 00:31:05;;;;;;;0.10;0.10;;;;;;;11.48;75.83;101877.72;5095377;27;20024;-84
2023/02/19 00:33:31;;;;;;;0.28;0.28;;;;;;;11.50;75.45;101883.88;5101965;28;20046;-84
2023/02/19 00:36:01;;;;;;;0.30;0.30;;;;;;;11.48;75.71;101883.88;5107980;28;20031;-85
2023/02/19 00:38:27;;;;;;;0.10;0.10;;;;;;;11.50;75.28;101883.88;5102062;28;20069;-85
2023/02/19 00:40:53;;;;;;;0.10;0.10;;;;;;;11.54;74.57;101887.38;5103068;27;20032;-84
2023/02/19 00:43:19;;;;;;;0.40;0.40;;;;;;;11.54;75.66;101892.69;5101595;28;20034;-84
2023/02/19 00:45:45;;;;;;;0.10;0.10;;;;;;;11.53;74.84;101889.16;5108434;28;20031;-84
2023/02/19 00:48:11;;;;;;;0.17;0.17;;;;;;;11.45;75.29;101888.31;5111647;28;20046;-83
2023/02/19 00:50:37;;;;;;;0.10;0.10;;;;;;;11.51;74.90;101890.06;5110047;28;20028;-83
2023/02/19 00:53:03;;;;;;;0.10;0.10;;;;;;;11.54;74.45;101892.69;5106953;28;20027;-84
2023/02/19 00:55:29;;;;;;;0.10;0.10;;;;;;;11.58;74.74;101895.31;5116349;28;20023;-83
2023/02/19 00:57:55;;;;;;;0.10;0.10;;;;;;;11.56;74.55;101901.53;5126256;28;20016;-83
2023/02/19 01:00:22;;;;;;;0.30;0.30;;;;;;;11.55;74.37;101895.34;5124126;28;20036;-82
2023/02/19 01:02:48;;;;;;;0.10;0.10;;;;;;;11.57;74.23;101898.00;5126039;28;20016;-84
2023/02/19 01:05:14;;;;;;;0.10;0.10;;;;;;;11.59;74.16;101899.75;5127540;28;20015;-82
2023/02/19 01:07:40;;;;;;;0.10;0.10;;;;;;;11.63;74.08;101906.78;5127668;28;20035;-83
2023/02/19 01:10:09;;;;;;;0.20;0.20;;;;;;;11.65;74.07;101905.00;5106176;28;20032;-84
2023/02/19 01:12:35;;;;;;;0.10;0.10;;;;;;;11.65;74.33;101905.00;5105237;28;20027;-86
2023/02/19 01:15:01;;;;;;;0.10;0.10;;;;;;;11.68;73.67;101911.19;5112057;28;20054;-86
2023/02/19 01:17:27;;;;;;;0.45;0.45;;;;;;;11.64;73.70;101905.03;5118968;28;20092;-82
2023/02/19 01:19:53;;;;;;;7.32;1.58;;;;;;;11.67;73.74;101906.78;5124034;27;20076;-82
2023/02/19 01:22:19;;;;;;;0.10;0.10;;;;;;;11.69;74.24;101897.00;5124892;27;20043;-82
2023/02/19 01:24:45;;;;;;;0.95;0.95;;;;;;;11.71;73.67;101900.53;5120134;28;20044;-82
2023/02/19 01:27:11;;;;;;;0.10;0.10;;;;;;;11.70;73.85;101909.38;5119972;28;20054;-84
2023/02/19 01:29:37;;;;;;;0.10;0.10;;;;;;;11.68;73.32;101917.38;5091240;28;20033;-85
2023/02/19 01:32:04;;;;;;;0.20;0.20;;;;;;;11.63;73.70;101921.84;5086507;28;20035;-84
2023/02/19 01:34:32;;;;;;;0.20;0.20;;;;;;;11.73;73.78;101918.22;5093127;28;20463;-83
2023/02/19 01:36:58;;;;;;;0.10;0.10;;;;;;;11.76;73.16;101909.34;5091624;28;20087;-84
2023/02/19 01:39:24;;;;;;;0.10;0.10;;;;;;;11.78;73.63;101907.56;5096538;28;20051;-84
2023/02/19 01:41:50;;;;;;;0.08;0.08;;;;;;;11.77;72.86;101906.66;5085474;28;20479;-85
2023/02/19 01:46:57;;;;;;;0.10;0.10;;;;;;;11.80;73.13;101905.75;5098775;27;20362;-86
2023/02/19 01:49:30;;;;;;;0.30;0.30;;;;;;;11.85;73.12;101911.94;5072761;28;20403;-83
2023/02/19 01:52:05;;;;;;;0.10;0.10;;;;;;;11.75;72.62;101918.19;5078316;28;20035;-84
2023/02/19 01:54:36;;;;;;;0.10;0.10;;;;;;;11.81;73.00;101915.50;5073869;28;20111;-84
2023/02/19 01:57:08;;;;;;;0.60;0.60;;;;;;;11.83;72.42;101913.72;5087894;28;20035;-84
2023/02/19 01:59:35;;;;;;;0.35;0.35;;;;;;;11.79;73.10;101914.66;5075965;28;20028;-84
2023/02/19 02:02:01;;;;;;;0.20;0.20;;;;;;;11.77;72.85;101911.97;5076755;28;20038;-84
2023/02/19 02:04:31;;;;;;;0.20;0.20;;;;;;;11.77;73.15;101909.31;5075416;28;20050;-83
2023/02/19 02:07:01;;;;;;;0.10;0.10;;;;;;;11.73;73.04;101910.25;5077883;28;20033;-85
2023/02/19 02:12:15;;;;;;;0.20;0.20;;;;;;;11.65;72.65;101918.28;5077209;28;20483;-84
2023/02/19 02:14:46;;;;;;;0.10;0.10;;;;;;;11.73;72.64;101925.31;5079927;28;20031;-84
2023/02/19 02:22:43;;;;;;;0.10;0.10;;;;;;;11.69;72.78;101923.53;5097034;27;20132;-85
2023/02/19 02:28:00;;;;;;;0.10;0.10;;;;;;;11.63;72.92;101935.97;5096885;27;1189205;-84
2023/02/19 02:30:36;;;;;;;0.10;0.10;;;;;;;11.59;72.42;101936.91;5144548;27;20039;-84
2023/02/19 02:33:42;;;;;;;0.10;0.10;;;;;;;11.70;72.06;101946.56;5131058;27;20401;-85
2023/02/19 02:36:14;;;;;;;0.10;0.10;;;;;;;11.65;72.03;101942.16;5116646;28;20024;-86
2023/02/19 02:38:42;;;;;;;1.73;1.63;;;;;;;11.65;72.02;101933.31;5128639;28;20168;-84
2023/02/19 02:41:10;;;;;;;0.57;0.57;;;;;;;11.64;72.07;101943.06;5143598;27;20053;-84
2023/02/19 02:43:36;;;;;;;0.10;0.10;;;;;;;11.74;71.47;101937.66;5147113;28;20092;-85
2023/02/19 02:46:02;;;;;;;0.10;0.10;;;;;;;11.78;71.58;101939.44;5126089;28;20044;-85
2023/02/19 02:48:38;;;;;;;0.65;0.60;;;;;;;11.76;71.63;101942.09;5124785;28;20490;-84
2023/02/19 02:56:55;;;;;;;0.30;0.30;;;;;;;11.62;71.84;101974.03;5053584;28;20037;-85
2023/02/19 02:59:24;;;;;;;0.10;0.10;;;;;;;11.68;71.39;101961.63;5082831;28;20040;-84
2023/02/19 03:02:17;;;;;;;0.10;0.10;;;;;;;11.68;72.07;101961.63;5079278;28;20017;-84
2023/02/19 03:05:52;;;;;;;0.20;0.20;;;;;;;11.67;72.32;101963.38;5069967;28;20020;-82
2023/02/19 03:10:51;;;;;;;1.08;1.08;;;;;;;11.53;72.74;101957.31;5147430;27;20630;-84
2023/02/19 03:19:30;;;;;;;0.43;0.43;;;;;;;11.39;73.28;101970.63;5091576;28;20044;-83
2023/02/19 03:22:08;;;;;;;2.08;1.20;;;;;;;11.48;73.15;101967.94;5092659;28;20033;-84
2023/02/19 03:27:29;;;;;;;0.10;0.10;;;;;;;11.36;73.56;101983.91;5077761;28;20047;-84
2023/02/19 03:30:01;;;;;;;0.13;0.13;;;;;;;11.43;73.03;101972.41;5073229;28;20107;-84
2023/02/19 03:35:12;;;;;;;0.20;0.20;;;;;;;11.45;73.92;101994.47;5067159;27;1871812;-84
2023/02/19 03:37:44;;;;;;;0.10;0.10;;;;;;;11.44;73.49;101988.31;5129702;28;20103;-84
2023/02/19 03:40:11;;;;;;;0.10;0.10;;;;;;;11.47;73.62;101987.41;5124752;28;20597;-83
2023/02/19 03:48:20;;;;;;;0.10;0.10;;;;;;;11.44;73.47;101988.31;5109252;27;1177648;-83
2023/02/19 03:51:26;;;;;;;2.40;2.22;;;;;;;11.41;74.22;102009.53;5137640;27;20566;-85
2023/02/19 03:54:18;;;;;;;0.10;0.10;;;;;;;11.28;73.69;102006.06;5133460;27;20069;-85
2023/02/19 03:59:32;;;;;;;1.10;0.30;;;;;;;11.15;75.23;102007.00;5076442;27;1858272;-84
2023/02/19 04:02:08;;;;;;;0.10;0.10;;;;;;;11.30;74.90;102016.66;5111150;28;20035;-85
2023/02/19 04:04:40;;;;;;;0.10;0.10;;;;;;;11.26;74.47;102023.75;5096787;28;20028;-83
2023/02/19 04:07:07;;;;;;;0.20;0.20;;;;;;;11.25;74.68;102018.44;5093863;28;20024;-84
2023/02/19 04:09:40;;;;;;;0.13;0.13;;;;;;;11.27;74.50;102014.03;5088985;28;20048;-84
2023/02/19 04:12:08;;;;;;;0.10;0.10;;;;;;;11.18;74.96;102012.31;5092260;28;20020;-84
2023/02/19 04:14:41;;;;;;;0.32;0.32;;;;;;;11.15;74.86;102023.81;5100481;28;20666;-85
2023/02/19 04:17:18;;;;;;;0.20;0.20;;;;;;;11.20;74.87;102020.25;5111925;28;20024;-84
2023/02/19 04:19:48;;;;;;;1.17;1.17;;;;;;;11.16;74.58;102019.38;5099987;28;20024;-83
2023/02/19 04:22:16;;;;;;;0.10;0.10;;;;;;;11.09;74.67;102023.81;5082669;28;21747;-84
2023/02/19 04:24:47;;;;;;;0.30;0.30;;;;;;;11.12;74.73;102028.25;5082851;28;20072;-85
2023/02/19 04:27:14;;;;;;;2.45;2.08;;;;;;;11.14;74.50;102031.75;5086933;28;20497;-84
2023/02/19 04:29:40;;;;;;;3.13;1.02;;;;;;;11.16;74.41;102024.69;5089090;28;20494;-84
2023/02/19 04:32:09;;;;;;;0.10;0.10;;;;;;;11.13;74.34;102035.31;5085001;28;20024;-84
2023/02/19 04:34:35;;;;;;;2.83;2.10;;;;;;;11.07;74.70;102030.03;5101170;28;20055;-85
2023/02/19 04:37:01;;;;;;;0.10;0.10;;;;;;;11.08;74.27;102058.28;5107867;28;20084;-84
2023/02/19 04:39:27;;;;;;;0.10;0.10;;;;;;;11.16;74.07;102048.56;5104396;28;20043;-88
2023/02/19 04:41:54;;;;;;;0.10;0.10;;;;;;;11.16;74.25;102064.47;5087593;28;20410;-87
2023/02/19 04:44:20;;;;;;;0.10;0.10;;;;;;;11.14;74.19;102075.09;5088091;28;20415;-85
2023/02/19 04:46:46;;;;;;;0.32;0.32;;;;;;;11.21;74.58;102069.78;5087605;28;20475;-85
2023/02/19 04:49:12;;;;;;;0.10;0.10;;;;;;;11.17;74.44;102076.84;5087587;28;20025;-86
2023/02/19 04:51:39;;;;;;;0.10;0.10;;;;;;;11.18;74.11;102081.28;5085197;28;20032;-85
2023/02/19 04:54:05;;;;;;;0.10;0.10;;;;;;;11.17;74.30;102084.81;5081146;28;20029;-85
2023/02/19 04:56:31;;;;;;;0.10;0.10;;;;;;;11.18;73.79;102091.88;5088517;28;20028;-85
2023/02/19 04:58:58;;;;;;;0.10;0.10;;;;;;;11.20;73.90;102095.41;5092161;28;20033;-86
2023/02/19 05:01:25;;;;;;;0.10;0.10;;;;;;;11.28;73.46;102090.97;5102559;28;20051;-85
2023/02/19 05:03:51;;;;;;;0.10;0.10;;;;;;;11.26;73.49;102094.50;5096955;28;20089;-85
2023/02/19 05:06:17;;;;;;;1.02;1.00;;;;;;;11.28;73.68;102096.28;5085146;28;20029;-84
2023/02/19 05:08:44;;;;;;;0.55;0.55;;;;;;;11.28;73.32;102103.34;5093423;28;20028;-85
2023/02/19 05:11:11;;;;;;;0.03;0.03;;;;;;;11.29;73.42;102107.75;5076327;28;20504;-86
2023/02/19 05:13:39;;;;;;;0.10;0.10;;;;;;;11.27;72.80;102118.38;5080469;28;20514;-83
2023/02/19 05:16:12;;;;;;;0.10;0.10;;;;;;;11.16;73.00;102113.13;5083774;28;20179;-85
2023/02/19 05:18:38;;;;;;;0.10;0.10;;;;;;;11.13;72.70;102134.31;5084727;28;20417;-85
2023/02/19 05:21:04;;;;;;;0.10;0.10;;;;;;;11.03;72.79;102121.06;5078455;28;20079;-87
2023/02/19 05:23:31;;;;;;;0.10;0.10;;;;;;;11.02;72.63;102137.91;5073909;28;20175;-84
2023/02/19 05:25:57;;;;;;;0.10;0.10;;;;;;;11.10;72.27;102149.34;5069255;28;20056;-84
2023/02/19 05:28:27;;;;;;;0.73;0.73;;;;;;;11.14;72.64;102143.16;5080254;28;20020;-85
2023/02/19 05:30:55;;;;;;;0.10;0.10;;;;;;;11.08;72.90;102137.84;5080124;28;20395;-86
2023/02/19 05:33:24;;;;;;;0.90;0.90;;;;;;;11.04;72.87;102144.06;5072910;28;20039;-84
2023/02/19 05:35:52;;;;;;;0.17;0.17;;;;;;;10.99;73.76;102138.75;5079274;28;20024;-84
2023/02/19 05:38:19;;;;;;;0.10;0.10;;;;;;;10.89;73.80;102137.91;5067807;28;20056;-83
2023/02/19 05:40:45;;;;;;;0.10;0.10;;;;;;;10.88;74.16;102137.88;5067413;28;20111;-85
2023/02/19 05:43:13;;;;;;;0.10;0.10;;;;;;;10.85;74.04;102130.81;5081920;28;20040;-85
2023/02/19 05:45:39;;;;;;;0.10;0.10;;;;;;;10.86;73.79;102139.66;5085570;28;20044;-84
2023/02/19 05:48:06;;;;;;;0.10;0.10;;;;;;;10.84;73.68;102129.03;5080225;28;20020;-85
2023/02/19 05:50:34;;;;;;;0.10;0.10;;;;;;;10.83;74.31;102137.91;5094318;28;20035;-84
2023/02/19 05:53:02;;;;;;;0.10;0.10;;;;;;;10.87;73.80;102138.78;5093968;28;20028;-84
2023/02/19 05:55:29;;;;;;;0.10;0.10;;;;;;;10.81;73.77;102139.66;5078479;28;20036;-83
2023/02/19 05:57:55;;;;;;;0.10;0.10;;;;;;;10.83;74.15;102133.47;5070700;28;20035;-85
2023/02/19 06:00:22;;;;;;;0.08;0.08;;;;;;;10.78;74.05;102144.94;5068072;28;20041;-84
2023/02/19 06:02:48;;;;;;;0.25;0.25;;;;;;;10.89;73.86;102148.50;5075491;28;20024;-86
2023/02/19 06:05:14;;;;;;;0.10;0.10;;;;;;;10.93;73.52;102147.63;5087000;28;20040;-85
2023/02/19 06:07:41;;;;;;;0.10;0.10;;;;;;;10.89;73.54;102143.22;5064035;28;20052;-84
2023/02/19 06:10:09;;;;;;;0.10;0.10;;;;;;;10.88;73.81;102157.34;5095248;28;20095;-87
2023/02/19 06:12:36;;;;;;;0.15;0.15;;;;;;;10.88;73.64;102157.34;5097808;28;20062;-86
2023/02/19 06:15:03;;;;;;;0.60;0.60;;;;;;;10.90;73.71;102162.63;5087573;28;20535;-86
2023/02/19 06:17:29;;;;;;;0.28;0.28;;;;;;;10.78;74.57;102176.75;5075622;28;20037;-85
2023/02/19 06:19:55;;;;;;;0.10;0.10;;;;;;;10.85;74.43;102165.28;5073044;28;20028;-84
2023/02/19 06:22:21;;;;;;;0.20;0.20;;;;;;;10.73;75.30;102178.53;5067476;28;20025;-85
2023/02/19 06:24:48;;;;;;;0.00;0.00;;;;;;;10.80;74.87;102180.31;5065091;28;20154;-84
2023/02/19 06:27:14;;;;;;;0.10;0.10;;;;;;;10.79;75.27;102183.84;5069266;28;20032;-83
2023/02/19 06:29:40;;;;;;;1.10;0.65;;;;;;;10.80;75.11;102188.25;5072550;28;20029;-82
2023/02/19 06:32:06;;;;;;;17.63;2.28;;;;;;;10.76;74.97;102190.03;5073599;28;20036;-83
2023/02/19 06:34:33;;;;;;;0.10;0.10;;;;;;;10.73;75.51;102190.03;5072926;28;20098;-83
2023/02/19 06:37:00;;;;;;;0.10;0.10;;;;;;;10.72;75.14;102190.91;5069664;28;20549;-84
2023/02/19 06:39:26;;;;;;;0.10;0.10;;;;;;;10.74;75.49;102190.91;5082577;28;20040;-84
2023/02/19 06:41:57;;;;;;;0.10;0.10;;;;;;;10.77;75.30;102190.94;5077501;28;20032;-83
2023/02/19 06:44:23;;;;;;;0.10;0.10;;;;;;;10.78;74.90;102193.56;5072825;28;20046;-84
2023/02/19 06:46:49;;;;;;;0.10;0.10;;;;;;;10.77;75.05;102196.22;5067961;28;20024;-84
2023/02/19 06:49:16;;;;;;;0.10;0.10;;;;;;;10.76;75.25;102202.41;5072006;28;20036;-84
2023/02/19 06:51:42;;;;;;;0.10;0.10;;;;;;;10.78;75.06;102192.66;5068549;28;20028;-83
2023/02/19 06:54:09;;;;;;;0.10;0.10;;;;;;;10.73;75.05;102199.75;5066457;28;20033;-84
2023/02/19 06:56:38;;;;;;;0.20;0.20;;;;;;;10.72;75.12;102208.59;5065698;28;20390;-83
2023/02/19 06:59:07;;;;;;;0.10;0.10;;;;;;;10.65;75.42;102216.53;5070670;28;20024;-83
2023/02/19 07:01:35;;;;;;;0.10;0.10;;;;;;;10.80;74.95;102217.44;5077156;28;20020;-84
2023/02/19 07:04:02;;;;;;;0.20;0.20;;;;;;;10.77;75.01;102217.44;5076440;28;20063;-84
2023/02/19 07:06:29;;;;;;;0.10;0.10;;;;;;;10.68;75.23;102219.19;5062892;28;20043;-84
2023/02/19 07:08:56;;;;;;;41.38;3.20;;;;;;;10.64;75.39;102227.13;5074581;28;20032;-83
2023/02/19 07:11:23;;;;;;;0.10;0.10;;;;;;;10.62;75.24;102235.06;5081827;28;20037;-84
2023/02/19 07:13:55;;;;;;;0.13;0.13;;;;;;;10.64;74.95;102238.63;5075706;28;20016;-85
2023/02/19 07:16:21;;;;;;;0.20;0.20;;;;;;;10.65;75.11;102248.34;5079969;28;20028;-85
2023/02/19 07:18:47;;;;;;;0.10;0.10;;;;;;;10.66;75.12;102259.81;5077250;28;20024;-84
2023/02/19 07:21:15;;;;;;;0.20;0.20;;;;;;;10.66;75.24;102257.16;5069374;28;20403;-83
2023/02/19 07:23:42;;;;;;;0.80;0.80;;;;;;;10.68;75.44;102271.31;5047067;28;20028;-84
2023/02/19 07:26:11;;;;;;;0.10;0.10;;;;;;;10.68;75.50;102260.72;5083536;28;20030;-84
2023/02/19 07:28:38;;;;;;;0.10;0.10;;;;;;;10.60;75.69;102271.28;5100148;28;20036;-84
2023/02/19 07:31:05;;;;;;;0.10;0.10;;;;;;;10.54;75.91;102284.50;5082046;28;20056;-85
2023/02/19 07:33:31;;;;;;;0.10;0.10;;;;;;;10.68;75.58;102277.50;5078350;28;20459;-84
2023/02/19 07:35:57;;;;;;;0.17;0.17;;;;;;;10.61;75.62;102278.34;5077511;28;20257;-85
2023/02/19 07:38:25;;;;;;;0.10;0.10;;;;;;;10.64;75.80;102283.69;5071977;28;20040;-85
2023/02/19 07:40:54;;;;;;;0.10;0.10;;;;;;;10.60;75.92;102295.13;5073156;28;20020;-84
2023/02/19 07:43:23;;;;;;;0.10;0.10;;;;;;;10.62;76.07;102304.00;5092348;28;20017;-81
2023/02/19 07:45:49;;;;;;;0.10;0.10;;;;;;;10.57;76.43;102304.88;5101198;28;20024;-81
2023/02/19 07:48:15;;;;;;;0.10;0.10;;;;;;;10.59;76.12;102305.75;5084172;28;20131;-85
2023/02/19 07:50:41;;;;;;;0.20;0.20;;;;;;;10.55;76.15;102312.78;5067797;28;20028;-85
2023/02/19 07:53:07;;;;;;;0.17;0.17;;;;;;;10.57;76.05;102321.66;5059408;28;20032;-84
2023/02/19 07:55:34;;;;;;;0.10;0.10;;;;;;;10.63;76.05;102313.72;5068773;28;20298;-86
2023/02/19 07:58:00;;;;;;;0.10;0.10;;;;;;;10.63;76.58;102328.72;5064191;28;20033;-84
2023/02/19 08:00:27;;;;;;;0.20;0.20;;;;;;;10.60;76.75;102329.59;5065335;28;20106;-83
2023/02/19 08:03:00;;;;;;;0.10;0.10;;;;;;;10.63;76.26;102336.66;5078566;28;20089;-83
2023/02/19 08:05:30;;;;;;;0.10;0.10;;;;;;;10.65;76.20;102330.53;5070301;28;20036;-83
2023/02/19 08:07:57;;;;;;;0.47;0.47;;;;;;;10.66;76.02;102347.28;5067920;28;20032;-82
2023/02/19 08:13:28;;;;;;;0.10;0.10;;;;;;;10.53;76.92;102343.72;5058593;28;20123;-83
2023/02/19 08:18:31;;;;;;;0.10;0.10;;;;;;;10.59;76.48;102359.66;5108455;27;1178306;-84
2023/02/19 08:21:01;;;;;;;0.10;0.10;;;;;;;10.54;76.41;102340.16;5126823;28;20080;-84
2023/02/19 08:23:28;;;;;;;0.10;0.10;;;;;;;10.49;76.75;102348.13;5110558;27;20398;-85
2023/02/19 08:25:57;;;;;;;0.20;0.20;;;;;;;10.56;76.59;102359.63;5094181;28;20062;-85
2023/02/19 08:28:23;;;;;;;0.10;0.10;;;;;;;10.55;76.61;102355.19;5106732;28;20039;-84
2023/02/19 08:30:50;;;;;;;0.10;0.10;;;;;;;10.59;76.76;102350.78;5096164;28;20039;-84
2023/02/19 08:33:19;;;;;;;0.10;0.10;;;;;;;10.59;76.85;102357.00;5097854;28;20025;-87
2023/02/19 08:35:48;;;;;;;0.20;0.20;;;;;;;10.63;76.84;102373.78;5100843;28;20038;-86
2023/02/19 08:38:23;;;;;;;0.10;0.10;;;;;;;10.61;76.84;102363.16;5106661;28;20040;-85
2023/02/19 08:40:49;;;;;;;0.10;0.10;;;;;;;10.52;76.66;102382.56;5106371;28;20509;-85
2023/02/19 08:43:18;;;;;;;0.17;0.17;;;;;;;10.67;76.65;102380.88;5103666;28;21155;-85
2023/02/19 08:45:46;;;;;;;0.77;0.77;;;;;;;10.72;76.64;102378.25;5100796;28;20043;-84
2023/02/19 08:48:13;;;;;;;0.10;0.10;;;;;;;10.70;76.39;102380.88;5104233;28;20541;-85
2023/02/19 08:50:39;;;;;;;0.10;0.10;;;;;;;10.62;76.60;102372.91;5102791;28;20035;-84
2023/02/19 08:53:06;;;;;;;0.10;0.10;;;;;;;10.62;76.27;102377.34;5102579;28;20077;-85
2023/02/19 08:55:32;;;;;;;0.10;0.10;;;;;;;10.67;76.49;102367.63;5101871;28;20036;-84
2023/02/19 08:57:58;;;;;;;0.10;0.10;;;;;;;10.62;76.63;102375.56;5102433;28;20040;-85
2023/02/19 09:00:26;;;;;;;0.10;0.10;;;;;;;10.63;76.79;102369.38;5115299;28;20032;-84
2023/02/19 09:02:52;;;;;;;0.10;0.10;;;;;;;10.59;76.58;102372.91;5112885;28;20094;-85
2023/02/19 09:05:18;;;;;;;0.10;0.10;;;;;;;10.59;76.70;102370.25;5112799;28;20044;-85
2023/02/19 09:07:44;;;;;;;0.47;0.47;;;;;;;10.60;77.07;102372.00;5093682;28;20066;-85
2023/02/19 09:10:12;;;;;;;0.10;0.10;;;;;;;10.63;77.03;102369.38;5112207;28;20024;-85
2023/02/19 09:12:39;;;;;;;2.95;1.15;;;;;;;10.73;76.91;102385.31;5106526;28;20398;-87
2023/02/19 09:15:05;;;;;;;0.08;0.08;;;;;;;10.79;76.69;102390.63;5098563;28;20028;-83
2023/02/19 09:17:31;;;;;;;0.10;0.10;;;;;;;10.78;75.93;102389.75;5106789;28;20038;-83
2023/02/19 09:19:57;;;;;;;0.10;0.10;;;;;;;10.81;76.00;102389.75;5102652;28;20056;-83
2023/02/19 09:22:24;;;;;;;0.15;0.15;;;;;;;10.87;76.05;102388.03;5126503;28;20091;-82
2023/02/19 09:24:50;;;;;;;1.83;1.77;;;;;;;10.82;75.98;102396.84;5111256;28;20092;-83
2023/02/19 09:27:18;;;;;;;0.10;0.10;;;;;;;10.85;76.04;102401.25;5105873;28;20051;-84
2023/02/19 09:29:45;;;;;;;0.10;0.10;;;;;;;10.91;75.83;102403.06;5087676;28;20067;-83
2023/02/19 09:32:11;;;;;;;0.10;0.10;;;;;;;10.80;75.96;102419.84;5088060;28;20035;-83
2023/02/19 09:34:38;;;;;;;0.10;0.10;;;;;;;10.92;75.47;102421.63;5089660;28;20040;-85
2023/02/19 09:37:05;;;;;;;1.90;1.80;;;;;;;10.94;75.16;102421.63;5086958;28;20036;-86
2023/02/19 09:39:31;;;;;;;0.10;0.10;;;;;;;11.02;75.54;102432.28;5101467;28;20031;-84
2023/02/19 09:42:03;;;;;;;1.40;1.30;;;;;;;11.04;74.81;102443.78;5088256;28;20081;-86
2023/02/19 09:44:34;;;;;;;0.30;0.30;;;;;;;11.14;74.97;102434.94;5093380;28;20093;-84
2023/02/19 09:47:03;;;;;;;0.20;0.20;;;;;;;11.17;74.78;102442.94;5084273;28;20028;-85
2023/02/19 09:49:35;;;;;;;0.15;0.15;;;;;;;11.43;74.75;102444.78;5085492;28;20048;-84
2023/02/19 09:52:12;;;;;;;0.70;0.70;;;;;;;11.59;74.77;102458.94;5085625;28;20046;-85
2023/02/19 09:54:39;;;;;;;0.10;0.10;;;;;;;11.60;73.66;102445.69;5080720;28;20115;-84
2023/02/19 09:57:18;;;;;;;0.10;0.10;;;;;;;11.52;72.34;102449.22;5085117;28;20051;-85
2023/02/19 09:59:49;;;;;;;0.10;0.10;;;;;;;11.52;72.29;102458.06;5092796;28;20031;-85
2023/02/19 10:02:22;;;;;;;0.10;0.10;;;;;;;11.54;71.48;102466.94;5081772;28;20112;-84
2023/02/19 10:04:50;;;;;;;0.10;0.10;;;;;;;11.56;71.64;102475.75;5089412;28;20047;-86
2023/02/19 10:07:19;;;;;;;0.10;0.10;;;;;;;11.56;71.21;102478.41;5086535;28;20494;-89
2023/02/19 10:09:56;;;;;;;0.10;0.10;;;;;;;11.52;70.52;102481.09;5090177;28;20032;-91
2023/02/19 10:12:27;;;;;;;0.70;0.70;;;;;;;11.49;70.22;102482.84;5085272;28;20028;-90
2023/02/19 10:15:04;;;;;;;0.08;0.08;;;;;;;11.48;70.33;102493.44;5102894;28;20036;-89
2023/02/19 10:17:41;;;;;;;0.10;0.10;;;;;;;11.33;68.73;102504.91;5106947;28;20158;-90
2023/02/19 10:20:14;;;;;;;0.40;0.40;;;;;;;11.30;68.78;102505.78;5113410;28;20372;-89
2023/02/19 10:22:41;;;;;;;0.10;0.10;;;;;;;11.33;68.32;102495.16;5100596;28;20142;-87
2023/02/19 10:25:14;;;;;;;0.28;0.28;;;;;;;11.34;67.90;102509.34;5100592;28;20028;-85
2023/02/19 10:27:42;;;;;;;0.10;0.10;;;;;;;11.21;68.14;102511.03;5100317;28;20261;-85
2023/02/19 10:30:21;;;;;;;0.10;0.10;;;;;;;11.32;68.32;102513.75;5091969;28;20024;-85
2023/02/19 10:33:11;;;;;;;0.10;0.10;;;;;;;11.24;68.46;102524.34;5091381;28;20031;-85
2023/02/19 10:35:55;;;;;;;0.10;0.10;;;;;;;11.16;68.20;102523.41;5099492;28;20031;-87
2023/02/19 10:38:27;;;;;;;0.38;0.38;;;;;;;11.20;68.25;102521.66;5095765;28;20036;-86
2023/02/19 10:41:03;;;;;;;0.10;0.10;;;;;;;11.29;68.21;102535.84;5085606;28;20102;-84
2023/02/19 10:43:35;;;;;;;0.10;0.10;;;;;;;11.25;68.24;102535.81;5085085;28;20024;-84
2023/02/19 10:46:07;;;;;;;0.75;0.75;;;;;;;11.29;67.82;102525.25;5090746;28;20038;-86
2023/02/19 10:48:39;;;;;;;0.15;0.15;;;;;;;11.15;68.47;102538.44;5093555;28;21782;-85
2023/02/19 10:51:08;;;;;;;0.20;0.20;;;;;;;11.16;68.93;102539.31;5097801;28;20084;-84
2023/02/19 10:53:40;;;;;;;0.10;0.10;;;;;;;11.20;68.91;102541.09;5100802;28;20130;-85
2023/02/19 10:56:09;;;;;;;0.15;0.15;;;;;;;11.12;68.73;102549.03;5089230;28;20028;-83
2023/02/19 10:58:36;;;;;;;0.10;0.10;;;;;;;11.07;69.02;102540.16;5085265;28;20120;-83
2023/02/19 11:01:20;;;;;;;0.10;0.10;;;;;;;11.15;69.47;102542.84;5102464;28;20028;-83
2023/02/19 11:04:16;;;;;;;0.10;0.10;;;;;;;11.14;69.42;102538.41;5093676;28;20024;-84
2023/02/19 11:06:44;;;;;;;0.40;0.40;;;;;;;11.20;69.35;102522.53;5088206;28;20032;-89
2023/02/19 11:09:33;;;;;;;0.10;0.10;;;;;;;11.31;69.25;102518.19;5091114;28;20055;-88
2023/02/19 11:12:00;;;;;;;0.10;0.10;;;;;;;11.41;69.32;102523.50;5083872;28;20108;-86
2023/02/19 11:14:28;;;;;;;0.08;0.08;;;;;;;11.48;69.14;102525.31;5081277;28;20024;-83
2023/02/19 11:16:57;;;;;;;0.17;0.17;;;;;;;11.60;69.26;102525.34;5082704;28;20039;-85
2023/02/19 11:25:24;;;;;;;0.17;0.17;;;;;;;11.77;67.23;102527.16;5096333;27;20934;-84
2023/02/19 11:30:43;;;;;;;0.15;0.15;;;;;;;11.67;67.05;102525.38;5116304;27;20483;-84
2023/02/19 11:34:12;;;;;;;0.50;0.50;;;;;;;11.72;67.25;102519.16;5059983;28;20029;-86
2023/02/19 11:36:39;;;;;;;0.10;0.10;;;;;;;11.63;67.95;102524.47;5074146;28;20033;-85
2023/02/19 11:39:30;;;;;;;0.10;0.10;;;;;;;11.74;67.71;102532.44;5063153;28;20021;-87
2023/02/19 11:48:04;;;;;;;0.10;0.10;;;;;;;11.49;67.73;102532.41;5064932;27;20174;-84
2023/02/19 11:51:03;;;;;;;0.05;0.05;;;;;;;11.37;68.09;102527.91;5052088;28;20094;-85
2023/02/19 11:53:33;;;;;;;0.10;0.10;;;;;;;11.30;68.14;102524.38;5048942;28;20029;-83
2023/02/19 11:56:24;;;;;;;0.10;0.10;;;;;;;11.31;69.27;102506.66;5043836;28;20513;-85
2023/02/19 11:59:04;;;;;;;0.10;0.10;;;;;;;11.20;69.18;102516.34;5042869;28;20036;-86
2023/02/19 12:01:58;;;;;;;0.10;0.10;;;;;;;11.23;69.20;102519.91;5043816;28;20025;-84
2023/02/19 12:07:28;;;;;;;0.10;0.10;;;;;;;11.11;70.25;102533.97;5055084;28;20410;-85
2023/02/19 12:13:12;;;;;;;0.10;0.10;;;;;;;11.13;70.91;102552.59;5059220;28;20419;-88
2023/02/19 12:19:07;;;;;;;0.30;0.30;;;;;;;11.10;70.85;102548.16;4688462;27;11298970;-89
2023/02/19 12:35:21;;;;;;;0.10;0.10;;;;;;;11.10;71.57;102545.50;5155118;27;20798;-86
2023/02/19 12:38:02;;;;;;;0.10;0.10;;;;;;;11.03;71.89;102543.69;5120148;27;20035;-86
2023/02/19 12:41:11;;;;;;;0.10;0.10;;;;;;;11.17;71.86;102544.63;5121283;27;20024;-86
2023/02/19 12:43:45;;;;;;;0.10;0.10;;;;;;;11.31;72.51;102542.06;5126736;27;20035;-85
2023/02/19 12:46:21;;;;;;;0.10;0.10;;;;;;;11.64;72.21;102545.69;5129725;27;20031;-86
2023/02/19 12:54:24;;;;;;;0.10;0.10;;;;;;;11.67;69.16;102557.22;5120278;27;20495;-86
2023/02/19 12:59:45;;;;;;;0.85;0.82;;;;;;;11.71;68.81;102577.59;5077877;27;20927;-86
2023/02/19 13:02:40;;;;;;;0.10;0.10;;;;;;;11.77;69.18;102585.56;5067538;28;20033;-85
2023/02/19 13:05:46;;;;;;;0.20;0.20;;;;;;;11.73;69.27;102605.03;5074976;28;20025;-86
2023/02/19 13:08:42;;;;;;;0.10;0.10;;;;;;;11.65;69.14;102612.94;5060560;28;20060;-88
2023/02/19 13:11:30;;;;;;;0.10;0.10;;;;;;;11.55;69.26;102612.06;5065099;28;20037;-85
2023/02/19 13:14:10;;;;;;;0.08;0.08;;;;;;;11.44;68.63;102619.06;5068083;28;20033;-87
2023/02/19 13:16:43;;;;;;;0.10;0.10;;;;;;;11.25;69.11;102623.38;5072611;28;20036;-87